createdAt,value
2022-11-05T00:01:14.456Z,92609.31
2022-11-05T00:03:04.534Z,92603.72
2022-11-05T00:04:54.790Z,92596.63
2022-11-05T00:06:44.885Z,92599.47
2022-11-05T00:08:35.266Z,92598.34
2022-11-05T00:10:18.990Z,92595.75
2022-11-05T00:12:09.125Z,92595.53
2022-11-05T00:13:59.262Z,92595.66
2022-11-05T00:15:49.269Z,92603.75
2022-11-05T00:17:21.129Z,92597.69
2022-11-05T00:19:07.608Z,92608.28
2022-11-05T00:20:39.134Z,92610.31
2022-11-05T00:22:29.886Z,92606.94
2022-11-05T00:24:24.138Z,92618.66
2022-11-05T00:25:56.020Z,92619.56
2022-11-05T00:27:27.545Z,92614.59
2022-11-05T00:28:59.824Z,92616.63
2022-11-05T00:30:31.781Z,92616.75
2022-11-05T00:32:03.961Z,92607.06
2022-11-05T00:33:35.961Z,92611.34
2022-11-05T00:35:07.995Z,92604.34
2022-11-05T00:36:39.594Z,92610.53
2022-11-05T00:38:11.320Z,92608.16
2022-11-05T00:39:44.433Z,92603.56
2022-11-05T00:41:16.052Z,92601.97
2022-11-05T00:43:06.498Z,92599.97
2022-11-05T00:44:56.572Z,92597.13
2022-11-05T00:46:28.282Z,92599.63
2022-11-05T00:48:18.477Z,92596.13
2022-11-05T00:49:50.093Z,92592.84
2022-11-05T00:51:21.935Z,92592.72
2022-11-05T00:52:56.971Z,92595.00
2022-11-05T00:54:29.177Z,92588.78
2022-11-05T00:56:01.264Z,92589.13
2022-11-05T00:57:33.207Z,92590.72
2022-11-05T00:59:05.084Z,92581.91
2022-11-05T01:00:38.017Z,92586.97
2022-11-05T01:02:09.650Z,92586.66
2022-11-05T01:03:41.348Z,92581.13
2022-11-05T01:05:13.208Z,92584.38
2022-11-05T01:06:44.861Z,92576.84
2022-11-05T01:08:16.842Z,92572.75
2022-11-05T01:09:48.600Z,92570.16
2022-11-05T01:11:37.289Z,92569.16
2022-11-05T01:13:13.024Z,92570.00
2022-11-05T01:14:45.138Z,92570.25
2022-11-05T01:16:16.796Z,92565.16
2022-11-05T01:17:48.520Z,92568.00
2022-11-05T01:19:20.213Z,92569.13
2022-11-05T01:20:51.822Z,92561.91
2022-11-05T01:22:23.540Z,92562.22
2022-11-05T01:23:55.129Z,92547.84
2022-11-05T01:25:27.130Z,92551.66
2022-11-05T01:26:58.948Z,92551.66
2022-11-05T01:28:31.228Z,92547.84
2022-11-05T01:30:03.707Z,92542.78
2022-11-05T01:31:35.819Z,92540.84
2022-11-05T01:33:08.127Z,92528.47
2022-11-05T01:34:39.856Z,92523.88
2022-11-05T01:36:11.484Z,92521.50
2022-11-05T01:37:43.152Z,92518.78
2022-11-05T01:39:14.701Z,92508.19
2022-11-05T01:40:46.452Z,92516.53
2022-11-05T01:42:22.087Z,92511.78
2022-11-05T01:43:57.490Z,92508.97
2022-11-05T01:45:29.169Z,92507.56
2022-11-05T01:47:00.887Z,92502.72
2022-11-05T01:48:33.871Z,92507.19
2022-11-05T01:50:07.578Z,92491.88
2022-11-05T01:51:39.262Z,92485.56
2022-11-05T01:53:26.076Z,92491.28
2022-11-05T01:54:57.602Z,92480.84
2022-11-05T01:56:39.341Z,92490.03
2022-11-05T01:58:11.824Z,92484.31
2022-11-05T01:59:44.678Z,92480.63
2022-11-05T02:01:16.515Z,92476.91
2022-11-05T02:02:48.270Z,92474.03
2022-11-05T02:04:33.039Z,92483.84
2022-11-05T02:06:04.906Z,92482.63
2022-11-05T02:07:36.429Z,92474.78
2022-11-05T02:09:12.713Z,92473.78
2022-11-05T02:10:44.547Z,92475.78
2022-11-05T02:12:16.338Z,92470.84
2022-11-05T02:13:48.842Z,92473.53
2022-11-05T02:15:47.286Z,92461.63
2022-11-05T02:17:19.235Z,92457.78
2022-11-05T02:18:57.234Z,92466.22
2022-11-05T02:20:32.177Z,92470.06
2022-11-05T02:22:06.669Z,92468.59
2022-11-05T02:23:38.294Z,92470.50
2022-11-05T02:25:09.805Z,92471.63
2022-11-05T02:26:44.634Z,92473.88
2022-11-05T02:28:34.585Z,92469.16
2022-11-05T02:30:09.370Z,92466.34
2022-11-05T02:32:01.532Z,92468.56
2022-11-05T02:33:36.064Z,92468.13
2022-11-05T02:35:16.313Z,92469.25
2022-11-05T02:36:51.386Z,92468.81
2022-11-05T02:38:22.952Z,92469.16
2022-11-05T02:40:06.885Z,92463.75
2022-11-05T02:41:47.651Z,92467.88
2022-11-05T02:43:28.692Z,92474.72
2022-11-05T02:45:00.308Z,92471.91
2022-11-05T02:46:50.353Z,92462.56
2022-11-05T02:48:23.832Z,92465.25
2022-11-05T02:49:55.786Z,92464.34
2022-11-05T02:51:30.905Z,92469.06
2022-11-05T02:53:04.858Z,92471.38
2022-11-05T02:54:39.822Z,92467.97
2022-11-05T02:56:15.864Z,92470.09
2022-11-05T02:57:47.489Z,92468.81
2022-11-05T02:59:19.058Z,92459.84
2022-11-05T03:00:57.323Z,92457.47
2022-11-05T03:02:28.952Z,92457.94
2022-11-05T03:04:01.217Z,92452.53
2022-11-05T03:05:48.694Z,92454.13
2022-11-05T03:07:20.385Z,92457.16
2022-11-05T03:08:58.260Z,92456.81
2022-11-05T03:10:34.289Z,92467.94
2022-11-05T03:12:05.897Z,92462.06
2022-11-05T03:13:44.696Z,92464.53
2022-11-05T03:15:19.738Z,92465.19
2022-11-05T03:17:09.856Z,92466.16
2022-11-05T03:19:01.368Z,92470.13
2022-11-05T03:21:05.163Z,92464.59
2022-11-05T03:22:37.631Z,92466.25
2022-11-05T03:24:11.089Z,92465.59
2022-11-05T03:25:44.008Z,92475.03
2022-11-05T03:27:16.066Z,92477.56
2022-11-05T03:28:48.550Z,92481.59
2022-11-05T03:30:20.195Z,92486.34
2022-11-05T03:31:52.532Z,92481.41
2022-11-05T03:33:28.141Z,92489.19
2022-11-05T03:35:03.772Z,92493.47
2022-11-05T03:36:41.711Z,92499.66
2022-11-05T03:38:18.219Z,92493.25
2022-11-05T03:39:51.237Z,92504.50
2022-11-05T03:41:23.191Z,92502.44
2022-11-05T03:42:55.578Z,92508.97
2022-11-05T03:44:30.938Z,92516.72
2022-11-05T03:46:03.509Z,92511.81
2022-11-05T03:47:36.663Z,92517.38
2022-11-05T03:49:08.572Z,92517.13
2022-11-05T03:50:45.333Z,92522.59
2022-11-05T03:52:17.693Z,92519.19
2022-11-05T03:53:50.484Z,92521.88
2022-11-05T03:55:26.332Z,92529.63
2022-11-05T03:56:57.943Z,92522.22
2022-11-05T03:58:29.862Z,92533.00
2022-11-05T04:00:01.600Z,92531.41
2022-11-05T04:01:33.465Z,92531.22
2022-11-05T04:03:05.245Z,92530.09
2022-11-05T04:04:36.944Z,92530.41
2022-11-05T04:06:27.428Z,92532.78
2022-11-05T04:08:17.400Z,92530.41
2022-11-05T04:10:07.331Z,92531.56
2022-11-05T04:11:57.282Z,92533.47
2022-11-05T04:13:29.380Z,92536.59
2022-11-05T04:15:01.093Z,92533.91
2022-11-05T04:16:51.270Z,92535.94
2022-11-05T04:18:23.084Z,92545.63
2022-11-05T04:20:13.125Z,92542.94
2022-11-05T04:22:03.624Z,92540.69
2022-11-05T04:23:53.647Z,92541.03
2022-11-05T04:25:25.261Z,92543.72
2022-11-05T04:26:56.886Z,92543.72
2022-11-05T04:28:48.367Z,92544.69
2022-11-05T04:30:20.443Z,92549.28
2022-11-05T04:31:52.360Z,92551.47
2022-11-05T04:33:23.963Z,92551.94
2022-11-05T04:34:55.579Z,92543.06
2022-11-05T04:36:27.242Z,92549.25
2022-11-05T04:37:59.001Z,92545.31
2022-11-05T04:39:30.658Z,92552.94
2022-11-05T04:41:15.100Z,92552.78
2022-11-05T04:42:46.745Z,92550.75
2022-11-05T04:44:18.443Z,92548.38
2022-11-05T04:45:50.135Z,92551.56
2022-11-05T04:47:22.018Z,92553.13
2022-11-05T04:48:53.552Z,92548.84
2022-11-05T04:50:25.054Z,92547.38
2022-11-05T04:51:56.586Z,92546.28
2022-11-05T04:53:28.216Z,92544.38
2022-11-05T04:54:59.927Z,92539.28
2022-11-05T04:56:31.463Z,92537.38
2022-11-05T04:58:02.998Z,92535.03
2022-11-05T04:59:34.667Z,92545.38
2022-11-05T05:01:06.405Z,92554.91
2022-11-05T05:02:37.971Z,92544.44
2022-11-05T05:04:09.525Z,92549.34
2022-11-05T05:05:41.112Z,92546.88
2022-11-05T05:07:12.727Z,92546.25
2022-11-05T05:08:44.490Z,92551.38
2022-11-05T05:10:16.078Z,92558.53
2022-11-05T05:11:47.638Z,92561.56
2022-11-05T05:13:19.144Z,92563.78
2022-11-05T05:14:50.791Z,92556.84
2022-11-05T05:16:23.277Z,92561.44
2022-11-05T05:17:55.091Z,92565.56
2022-11-05T05:19:26.820Z,92563.19
2022-11-05T05:21:17.209Z,92557.00
2022-11-05T05:22:53.026Z,92563.78
2022-11-05T05:24:25.161Z,92562.81
2022-11-05T05:25:58.489Z,92564.06
2022-11-05T05:27:30.350Z,92570.09
2022-11-05T05:29:02.027Z,92570.75
2022-11-05T05:30:33.565Z,92572.66
2022-11-05T05:32:06.064Z,92579.31
2022-11-05T05:33:37.683Z,92579.78
2022-11-05T05:35:09.640Z,92574.84
2022-11-05T05:36:41.163Z,92569.72
2022-11-05T05:38:12.950Z,92570.13
2022-11-05T05:39:45.092Z,92568.16
2022-11-05T05:41:16.731Z,92572.28
2022-11-05T05:42:48.540Z,92575.53
2022-11-05T05:44:20.181Z,92584.91
2022-11-05T05:45:52.265Z,92577.59
2022-11-05T05:47:24.330Z,92584.03
2022-11-05T05:48:56.111Z,92582.28
2022-11-05T05:50:27.792Z,92587.81
2022-11-05T05:51:59.557Z,92584.25
2022-11-05T05:53:31.354Z,92588.34
2022-11-05T05:55:03.149Z,92590.09
2022-11-05T05:56:34.966Z,92588.34
2022-11-05T05:58:06.839Z,92590.56
2022-11-05T05:59:38.357Z,92598.22
2022-11-05T06:01:17.275Z,92599.56
2022-11-05T06:02:50.608Z,92589.16
2022-11-05T06:04:22.402Z,92586.47
2022-11-05T06:05:54.005Z,92585.81
2022-11-05T06:07:25.716Z,92582.00
2022-11-05T06:08:57.321Z,92584.38
2022-11-05T06:10:29.012Z,92586.09
2022-11-05T06:12:00.962Z,92578.88
2022-11-05T06:13:33.848Z,92583.31
2022-11-05T06:15:06.394Z,92598.19
2022-11-05T06:16:39.231Z,92592.59
2022-11-05T06:18:11.920Z,92583.16
2022-11-05T06:19:44.453Z,92584.19
2022-11-05T06:21:17.407Z,92581.41
2022-11-05T06:22:58.123Z,92587.31
2022-11-05T06:24:29.987Z,92586.63
2022-11-05T06:26:02.068Z,92595.66
2022-11-05T06:27:33.981Z,92580.47
2022-11-05T06:29:05.685Z,92588.00
2022-11-05T06:30:38.048Z,92578.88
2022-11-05T06:32:09.686Z,92577.97
2022-11-05T06:33:41.390Z,92583.31
2022-11-05T06:35:13.661Z,92579.69
2022-11-05T06:36:45.368Z,92579.69
2022-11-05T06:38:17.019Z,92575.91
2022-11-05T06:39:48.769Z,92584.13
2022-11-05T06:41:20.545Z,92585.91
2022-11-05T06:42:53.270Z,92571.34
2022-11-05T06:44:24.997Z,92576.28
2022-11-05T06:45:57.611Z,92572.63
2022-11-05T06:47:29.493Z,92574.50
2022-11-05T06:49:01.609Z,92569.06
2022-11-05T06:50:33.353Z,92570.13
2022-11-05T06:52:05.754Z,92566.13
2022-11-05T06:53:37.457Z,92574.09
2022-11-05T06:55:09.504Z,92574.28
2022-11-05T06:56:41.137Z,92568.78
2022-11-05T06:58:13.249Z,92570.97
2022-11-05T06:59:45.046Z,92571.16
2022-11-05T07:01:16.881Z,92567.22
2022-11-05T07:02:48.862Z,92571.41
2022-11-05T07:04:20.703Z,92567.47
2022-11-05T07:05:52.609Z,92558.44
2022-11-05T07:07:24.326Z,92565.59
2022-11-05T07:08:56.263Z,92561.19
2022-11-05T07:10:28.518Z,92566.56
2022-11-05T07:12:00.799Z,92573.44
2022-11-05T07:13:32.548Z,92557.72
2022-11-05T07:15:04.686Z,92569.53
2022-11-05T07:16:36.666Z,92559.56
2022-11-05T07:18:08.787Z,92560.09
2022-11-05T07:19:41.125Z,92561.34
2022-11-05T07:21:15.765Z,92566.22
2022-11-05T07:22:47.438Z,92573.16
2022-11-05T07:24:19.078Z,92563.44
2022-11-05T07:25:51.210Z,92567.72
2022-11-05T07:27:22.944Z,92563.97
2022-11-05T07:28:55.409Z,92561.47
2022-11-05T07:30:27.147Z,92565.03
2022-11-05T07:31:59.041Z,92564.59
2022-11-05T07:33:36.160Z,92566.03
2022-11-05T07:35:08.916Z,92559.09
2022-11-05T07:36:40.780Z,92572.09
2022-11-05T07:38:13.117Z,92565.09
2022-11-05T07:39:44.927Z,92562.00
2022-11-05T07:41:16.800Z,92559.13
2022-11-05T07:42:55.133Z,92556.59
2022-11-05T07:44:26.787Z,92551.47
2022-11-05T07:45:58.708Z,92557.47
2022-11-05T07:47:30.442Z,92557.47
2022-11-05T07:49:02.600Z,92551.78
2022-11-05T07:50:35.144Z,92562.41
2022-11-05T07:52:06.794Z,92560.06
2022-11-05T07:53:43.956Z,92555.72
2022-11-05T07:55:17.030Z,92553.91
2022-11-05T07:56:48.695Z,92554.50
2022-11-05T07:58:20.464Z,92556.19
2022-11-05T07:59:52.259Z,92552.50
2022-11-05T08:01:23.985Z,92551.72
2022-11-05T08:03:07.227Z,92561.28
2022-11-05T08:04:42.655Z,92561.13
2022-11-05T08:06:14.337Z,92562.28
2022-11-05T08:07:46.397Z,92565.66
2022-11-05T08:09:18.218Z,92564.44
2022-11-05T08:10:49.834Z,92569.03
2022-11-05T08:12:21.532Z,92554.69
2022-11-05T08:13:53.214Z,92564.34
2022-11-05T08:15:24.767Z,92565.88
2022-11-05T08:16:57.433Z,92567.81
2022-11-05T08:18:32.165Z,92571.22
2022-11-05T08:20:03.883Z,92566.44
2022-11-05T08:21:35.469Z,92566.28
2022-11-05T08:23:07.132Z,92569.50
2022-11-05T08:24:38.941Z,92564.50
2022-11-05T08:26:10.776Z,92567.25
2022-11-05T08:27:42.688Z,92561.38
2022-11-05T08:29:14.471Z,92553.34
2022-11-05T08:30:48.842Z,92559.34
2022-11-05T08:32:20.451Z,92550.47
2022-11-05T08:33:52.205Z,92554.69
2022-11-05T08:35:23.814Z,92559.63
2022-11-05T08:36:55.527Z,92546.47
2022-11-05T08:38:27.375Z,92562.66
2022-11-05T08:39:59.243Z,92556.97
2022-11-05T08:41:30.917Z,92545.81
2022-11-05T08:43:03.746Z,92545.09
2022-11-05T08:44:35.438Z,92550.63
2022-11-05T08:46:07.255Z,92548.53
2022-11-05T08:47:38.957Z,92544.84
2022-11-05T08:49:10.854Z,92538.78
2022-11-05T08:50:42.767Z,92545.97
2022-11-05T08:52:14.707Z,92540.41
2022-11-05T08:53:46.396Z,92532.97
2022-11-05T08:55:19.825Z,92538.84
2022-11-05T08:56:51.516Z,92529.47
2022-11-05T08:58:23.258Z,92537.97
2022-11-05T08:59:54.910Z,92537.97
2022-11-05T09:01:26.832Z,92535.75
2022-11-05T09:02:59.991Z,92531.25
2022-11-05T09:04:31.634Z,92541.50
2022-11-05T09:06:03.537Z,92545.38
2022-11-05T09:07:35.214Z,92534.84
2022-11-05T09:09:06.951Z,92535.06
2022-11-05T09:10:38.750Z,92538.47
2022-11-05T09:12:12.714Z,92536.56
2022-11-05T09:13:44.906Z,92537.13
2022-11-05T09:15:16.541Z,92536.13
2022-11-05T09:16:48.224Z,92543.94
2022-11-05T09:18:20.569Z,92547.13
2022-11-05T09:19:52.127Z,92540.63
2022-11-05T09:21:23.823Z,92537.91
2022-11-05T09:22:55.834Z,92545.72
2022-11-05T09:24:27.673Z,92542.25
2022-11-05T09:26:00.083Z,92545.19
2022-11-05T09:27:31.964Z,92544.41
2022-11-05T09:29:03.491Z,92544.84
2022-11-05T09:30:35.094Z,92550.56
2022-11-05T09:34:40.038Z,92545.25
2022-11-05T09:36:11.857Z,92541.69
2022-11-05T09:37:43.503Z,92546.00
2022-11-05T09:39:15.341Z,92539.81
2022-11-05T09:40:47.216Z,92541.00
2022-11-05T09:42:19.092Z,92532.84
2022-11-05T09:43:52.101Z,92541.25
2022-11-05T09:45:24.668Z,92535.81
2022-11-05T09:47:00.049Z,92540.47
2022-11-05T09:48:32.051Z,92539.53
2022-11-05T09:50:05.907Z,92529.66
2022-11-05T09:51:37.747Z,92525.06
2022-11-05T09:53:11.496Z,92529.91
2022-11-05T09:54:44.231Z,92534.19
2022-11-05T09:56:23.830Z,92533.00
2022-11-05T09:57:57.691Z,92528.69
2022-11-05T09:59:38.580Z,92523.25
2022-11-05T10:01:20.079Z,92518.22
2022-11-05T10:02:53.615Z,92517.47
2022-11-05T10:04:26.429Z,92518.84
2022-11-05T10:06:00.112Z,92519.81
2022-11-05T10:07:33.055Z,92517.56
2022-11-05T10:09:09.537Z,92514.94
2022-11-05T10:10:51.362Z,92519.81
2022-11-05T10:12:40.931Z,92518.81
2022-11-05T10:14:21.135Z,92515.56
2022-11-05T10:16:14.325Z,92514.84
2022-11-05T10:17:47.516Z,92512.53
2022-11-05T10:19:26.257Z,92514.41
2022-11-05T10:20:58.242Z,92506.66
2022-11-05T10:22:29.720Z,92509.81
2022-11-05T10:24:01.338Z,92507.53
2022-11-05T10:25:33.539Z,92510.75
2022-11-05T10:27:05.162Z,92513.53
2022-11-05T10:28:37.070Z,92506.63
2022-11-05T10:30:10.802Z,92503.16
2022-11-05T10:31:42.460Z,92503.94
2022-11-05T10:33:15.584Z,92502.78
2022-11-05T10:34:47.097Z,92497.75
2022-11-05T10:36:34.325Z,92500.53
2022-11-05T10:38:06.164Z,92499.44
2022-11-05T10:39:37.709Z,92494.72
2022-11-05T10:41:15.773Z,92491.69
2022-11-05T10:42:51.840Z,92495.69
2022-11-05T10:44:35.252Z,92484.88
2022-11-05T10:46:06.820Z,92481.44
2022-11-05T10:47:57.366Z,92486.16
2022-11-05T10:49:47.174Z,92484.63
2022-11-05T10:51:18.958Z,92481.50
2022-11-05T10:53:19.865Z,92485.50
2022-11-05T10:54:52.525Z,92477.81
2022-11-05T10:56:30.107Z,92472.00
2022-11-05T10:58:10.275Z,92468.91
2022-11-05T10:59:42.345Z,92466.69
2022-11-05T11:01:13.964Z,92471.88
2022-11-05T11:02:50.151Z,92469.16
2022-11-05T11:04:23.191Z,92461.38
2022-11-05T11:05:58.673Z,92462.91
2022-11-05T11:07:30.469Z,92470.31
2022-11-05T11:09:02.828Z,92481.31
2022-11-05T11:10:40.333Z,92470.31
2022-11-05T11:12:16.180Z,92462.13
2022-11-05T11:13:58.848Z,92465.63
2022-11-05T11:15:32.918Z,92458.25
2022-11-05T11:17:23.744Z,92459.06
2022-11-05T11:19:00.473Z,92457.56
2022-11-05T11:20:32.289Z,92453.50
2022-11-05T11:22:04.039Z,92457.78
2022-11-05T11:23:42.354Z,92458.91
2022-11-05T11:25:26.690Z,92452.69
2022-11-05T11:27:04.748Z,92452.25
2022-11-05T11:28:37.969Z,92454.22
2022-11-05T11:30:16.046Z,92453.47
2022-11-05T11:31:47.549Z,92451.22
2022-11-05T11:33:21.214Z,92457.88
2022-11-05T11:34:53.230Z,92450.53
2022-11-05T11:36:25.417Z,92445.13
2022-11-05T11:37:57.238Z,92451.75
2022-11-05T11:39:29.231Z,92449.75
2022-11-05T11:41:01.943Z,92448.91
2022-11-05T11:42:34.577Z,92444.59
2022-11-05T11:44:08.181Z,92436.00
2022-11-05T11:45:47.111Z,92439.16
2022-11-05T11:47:19.348Z,92437.22
2022-11-05T11:48:51.495Z,92438.03
2022-11-05T11:50:44.708Z,92437.25
2022-11-05T11:52:24.702Z,92445.66
2022-11-05T11:53:56.810Z,92433.94
2022-11-05T11:55:28.381Z,92443.66
2022-11-05T11:56:59.899Z,92440.09
2022-11-05T11:58:41.971Z,92436.19
2022-11-05T12:00:13.890Z,92437.78
2022-11-05T12:01:49.762Z,92438.28
2022-11-05T12:03:21.639Z,92438.63
2022-11-05T12:05:06.372Z,92432.00
2022-11-05T12:06:56.800Z,92430.34
2022-11-05T12:08:31.792Z,92436.09
2022-11-05T12:10:09.461Z,92449.22
2022-11-05T12:11:46.807Z,92440.91
2022-11-05T12:13:21.252Z,92434.97
2022-11-05T12:14:57.835Z,92429.03
2022-11-05T12:16:29.546Z,92430.81
2022-11-05T12:18:02.791Z,92431.09
2022-11-05T12:19:49.896Z,92429.53
2022-11-05T12:21:48.052Z,92427.16
2022-11-05T12:23:31.461Z,92433.81
2022-11-05T12:25:18.262Z,92428.00
2022-11-05T12:27:11.195Z,92438.06
2022-11-05T12:30:53.120Z,92430.72
2022-11-05T12:32:43.465Z,92435.06
2022-11-05T12:34:30.290Z,92434.72
2022-11-05T12:36:04.741Z,92435.50
2022-11-05T12:37:55.554Z,92432.38
2022-11-05T12:39:27.239Z,92440.97
2022-11-05T12:41:03.092Z,92436.25
2022-11-05T12:42:53.167Z,92433.94
2022-11-05T12:44:25.046Z,92436.41
2022-11-05T12:46:08.976Z,92425.19
2022-11-05T12:47:43.405Z,92427.94
2022-11-05T12:49:21.396Z,92421.34
2022-11-05T12:51:02.586Z,92433.41
2022-11-05T12:52:34.277Z,92422.03
2022-11-05T12:54:05.946Z,92425.47
2022-11-05T12:55:47.084Z,92431.66
2022-11-05T12:57:21.194Z,92426.16
2022-11-05T12:58:57.365Z,92430.81
2022-11-05T13:00:28.880Z,92422.25
2022-11-05T13:02:03.426Z,92430.78
2022-11-05T13:03:50.869Z,92430.81
2022-11-05T13:05:34.736Z,92435.38
2022-11-05T13:07:06.945Z,92422.09
2022-11-05T13:08:42.121Z,92423.56
2022-11-05T13:10:19.968Z,92427.34
2022-11-05T13:11:53.013Z,92425.72
2022-11-05T13:13:31.831Z,92424.94
2022-11-05T13:15:05.317Z,92428.00
2022-11-05T13:16:44.199Z,92430.63
2022-11-05T13:18:18.411Z,92443.28
2022-11-05T13:19:54.732Z,92434.25
2022-11-05T13:21:26.533Z,92428.28
2022-11-05T13:23:04.663Z,92430.94
2022-11-05T13:24:40.856Z,92429.00
2022-11-05T13:26:19.843Z,92428.66
2022-11-05T13:28:10.380Z,92428.31
2022-11-05T13:29:47.185Z,92433.03
2022-11-05T13:31:20.325Z,92432.25
2022-11-05T13:33:03.001Z,92438.19
2022-11-05T13:34:37.599Z,92432.00
2022-11-05T13:36:34.180Z,92436.22
2022-11-05T13:38:25.676Z,92442.78
2022-11-05T13:40:00.125Z,92446.13
2022-11-05T13:41:41.067Z,92443.34
2022-11-05T13:43:12.869Z,92444.81
2022-11-05T13:44:44.664Z,92438.81
2022-11-05T13:46:20.508Z,92439.06
2022-11-05T13:48:30.620Z,92444.03
2022-11-05T13:50:14.477Z,92445.53
2022-11-05T13:51:46.092Z,92446.31
2022-11-05T13:53:36.389Z,92450.63
2022-11-05T13:55:13.968Z,92458.28
2022-11-05T13:57:04.258Z,92449.28
2022-11-05T13:58:55.035Z,92449.28
2022-11-05T14:00:28.678Z,92450.91
2022-11-05T14:02:05.625Z,92447.41
2022-11-05T14:03:37.352Z,92446.97
2022-11-05T14:05:20.101Z,92443.50
2022-11-05T14:06:52.109Z,92445.00
2022-11-05T14:08:27.868Z,92457.44
2022-11-05T14:10:00.368Z,92449.22
2022-11-05T14:11:38.727Z,92448.06
2022-11-05T14:13:29.028Z,92446.56
2022-11-05T14:15:17.597Z,92450.44
2022-11-05T14:16:51.490Z,92460.19
2022-11-05T14:18:42.403Z,92449.81
2022-11-05T14:20:43.725Z,92446.69
2022-11-05T14:22:33.627Z,92454.72
2022-11-05T14:24:24.212Z,92448.94
2022-11-05T14:25:56.062Z,92453.63
2022-11-05T14:27:36.985Z,92447.47
2022-11-05T14:29:20.620Z,92461.06
2022-11-05T14:30:52.488Z,92454.72
2022-11-05T14:32:25.140Z,92449.94
2022-11-05T14:34:01.362Z,92459.97
2022-11-05T14:35:36.861Z,92466.44
2022-11-05T14:37:09.900Z,92459.44
2022-11-05T14:39:08.114Z,92462.16
2022-11-05T14:40:43.700Z,92456.47
2022-11-05T14:42:15.252Z,92462.31
2022-11-05T14:43:47.956Z,92467.75
2022-11-05T14:45:25.866Z,92460.00
2022-11-05T14:47:00.033Z,92462.81
2022-11-05T14:48:48.001Z,92454.66
2022-11-05T14:50:21.671Z,92453.94
2022-11-05T14:51:54.411Z,92451.56
2022-11-05T14:53:33.963Z,92450.00
2022-11-05T14:55:05.738Z,92455.09
2022-11-05T14:56:44.150Z,92452.72
2022-11-05T14:58:26.187Z,92449.28
2022-11-05T15:00:01.352Z,92445.28
2022-11-05T15:01:35.757Z,92448.31
2022-11-05T15:03:26.531Z,92447.16
2022-11-05T15:05:16.928Z,92439.72
2022-11-05T15:07:17.386Z,92448.13
2022-11-05T15:08:48.935Z,92447.94
2022-11-05T15:10:20.837Z,92444.31
2022-11-05T15:11:57.599Z,92447.69
2022-11-05T15:13:33.650Z,92449.03
2022-11-05T15:15:18.819Z,92440.50
2022-11-05T15:16:54.449Z,92442.78
2022-11-05T15:18:40.350Z,92445.94
2022-11-05T15:20:15.879Z,92438.53
2022-11-05T15:21:47.815Z,92445.94
2022-11-05T15:23:20.763Z,92441.25
2022-11-05T15:24:52.481Z,92446.69
2022-11-05T15:26:24.249Z,92443.22
2022-11-05T15:27:56.149Z,92435.41
2022-11-05T15:29:28.855Z,92443.50
2022-11-05T15:31:08.968Z,92437.06
2022-11-05T15:32:41.292Z,92440.78
2022-11-05T15:34:19.300Z,92432.56
2022-11-05T15:35:50.925Z,92433.63
2022-11-05T15:37:24.489Z,92435.16
2022-11-05T15:39:27.452Z,92438.13
2022-11-05T15:40:47.907Z,92440.75
2022-11-05T15:42:23.417Z,92439.03
2022-11-05T15:43:54.967Z,92422.50
2022-11-05T15:45:26.563Z,92420.84
2022-11-05T15:47:08.206Z,92431.66
2022-11-05T15:48:39.903Z,92440.13
2022-11-05T15:50:15.107Z,92435.25
2022-11-05T15:51:50.109Z,92442.38
2022-11-05T15:53:51.537Z,92436.06
2022-11-05T15:55:27.741Z,92434.78
2022-11-05T15:56:59.373Z,92437.41
2022-11-05T15:58:31.623Z,92448.94
2022-11-05T16:00:04.945Z,92436.03
2022-11-05T16:01:37.411Z,92433.50
2022-11-05T16:03:27.888Z,92437.16
2022-11-05T16:04:59.529Z,92439.59
2022-11-05T16:06:39.613Z,92448.25
2022-11-05T16:08:12.462Z,92452.59
2022-11-05T16:09:50.494Z,92439.56
2022-11-05T16:11:23.449Z,92437.81
2022-11-05T16:12:55.019Z,92434.13
2022-11-05T16:14:26.801Z,92429.75
2022-11-05T16:15:59.669Z,92430.09
2022-11-05T16:17:32.527Z,92440.94
2022-11-05T16:19:24.039Z,92436.31
2022-11-05T16:21:02.954Z,92447.47
2022-11-05T16:22:47.563Z,92451.75
2022-11-05T16:24:28.147Z,92449.16
2022-11-05T16:26:01.136Z,92460.63
2022-11-05T16:27:32.731Z,92456.06
2022-11-05T16:29:12.403Z,92466.56
2022-11-05T16:30:52.020Z,92465.34
2022-11-05T16:32:29.887Z,92463.91
2022-11-05T16:34:03.543Z,92466.09
2022-11-05T16:35:35.207Z,92477.59
2022-11-05T16:37:07.413Z,92472.78
2022-11-05T16:38:39.093Z,92480.81
2022-11-05T16:40:21.042Z,92479.22
2022-11-05T16:41:52.653Z,92486.03
2022-11-05T16:43:25.102Z,92483.13
2022-11-05T16:44:57.049Z,92473.69
2022-11-05T16:46:29.133Z,92479.66
2022-11-05T16:48:00.730Z,92483.53
2022-11-05T16:49:32.524Z,92484.31
2022-11-05T16:51:04.747Z,92480.38
2022-11-05T16:52:36.927Z,92482.63
2022-11-05T16:54:09.066Z,92484.66
2022-11-05T16:55:41.363Z,92487.00
2022-11-05T16:57:26.962Z,92479.66
2022-11-05T16:58:58.570Z,92486.22
2022-11-05T17:00:30.179Z,92480.81
2022-11-05T17:02:02.248Z,92476.19
2022-11-05T17:03:34.225Z,92469.63
2022-11-05T17:05:07.804Z,92476.59
2022-11-05T17:06:41.035Z,92477.41
2022-11-05T17:08:14.531Z,92478.19
2022-11-05T17:09:48.799Z,92478.63
2022-11-05T17:11:20.907Z,92481.22
2022-11-05T17:12:52.654Z,92482.38
2022-11-05T17:14:24.728Z,92481.16
2022-11-05T17:15:56.674Z,92468.53
2022-11-05T17:17:29.533Z,92465.97
2022-11-05T17:19:01.492Z,92460.03
2022-11-05T17:20:40.786Z,92471.50
2022-11-05T17:22:12.921Z,92478.69
2022-11-05T17:23:44.939Z,92472.84
2022-11-05T17:25:16.777Z,92474.00
2022-11-05T17:26:48.649Z,92482.09
2022-11-05T17:28:20.648Z,92467.00
2022-11-05T17:29:53.053Z,92465.44
2022-11-05T17:31:25.021Z,92471.28
2022-11-05T17:32:56.901Z,92477.03
2022-11-05T17:34:29.141Z,92477.03
2022-11-05T17:36:01.091Z,92480.88
2022-11-05T17:37:33.820Z,92468.00
2022-11-05T17:39:05.844Z,92464.53
2022-11-05T17:40:37.741Z,92463.41
2022-11-05T17:42:09.845Z,92464.97
2022-11-05T17:43:41.922Z,92473.28
2022-11-05T17:45:13.635Z,92468.00
2022-11-05T17:46:45.267Z,92468.94
2022-11-05T17:48:17.102Z,92469.00
2022-11-05T17:49:49.092Z,92473.28
2022-11-05T17:51:21.195Z,92475.78
2022-11-05T17:52:52.946Z,92470.09
2022-11-05T17:54:24.719Z,92477.22
2022-11-05T17:55:56.759Z,92486.91
2022-11-05T17:57:28.676Z,92479.56
2022-11-05T17:59:00.816Z,92481.84
2022-11-05T18:00:32.447Z,92485.78
2022-11-05T18:02:04.283Z,92472.59
2022-11-05T18:03:36.444Z,92482.97
2022-11-05T18:05:08.339Z,92483.97
2022-11-05T18:06:40.375Z,92483.63
2022-11-05T18:08:12.719Z,92485.47
2022-11-05T18:09:44.287Z,92475.78
2022-11-05T18:11:15.915Z,92479.28
2022-11-05T18:12:48.138Z,92484.69
2022-11-05T18:14:23.842Z,92487.03
2022-11-05T18:15:56.332Z,92481.06
2022-11-05T18:17:27.957Z,92487.53
2022-11-05T18:18:59.640Z,92479.94
2022-11-05T18:20:31.520Z,92471.28
2022-11-05T18:22:03.246Z,92473.88
2022-11-05T18:23:35.012Z,92473.69
2022-11-05T18:25:06.909Z,92472.44
2022-11-05T18:26:38.671Z,92470.84
2022-11-05T18:28:10.772Z,92472.88
2022-11-05T18:29:42.581Z,92470.53
2022-11-05T18:31:18.678Z,92472.44
2022-11-05T18:32:51.314Z,92475.47
2022-11-05T18:34:23.058Z,92466.38
2022-11-05T18:35:54.627Z,92470.63
2022-11-05T18:37:26.493Z,92471.06
2022-11-05T18:38:58.794Z,92474.22
2022-11-05T18:40:31.078Z,92477.06
2022-11-05T18:42:02.697Z,92476.72
2022-11-05T18:43:34.767Z,92482.53
2022-11-05T18:45:07.104Z,92478.50